Time;durP1;ratioP1;P1;durP2;ratioP2;P2;SDS_P1;SDS_P2;PMS_P1;PMS_P2;Temp;Humidity;BMP_temperature;BMP_pressure;BME280_temperature;BME280_humidity;BME280_pressure;Samples;Min_cycle;Max_cycle;Signal;HPM_P1;HPM_P2
2022/12/09 00:01:21;;;;;;;17.17;13.53;;;;;;;2.53;96.28;95483.59;5042431;28;20199;-61
2022/12/09 00:03:48;;;;;;;17.47;13.43;;;;;;;2.44;98.07;95479.13;5043410;28;20566;-61
2022/12/09 00:06:16;;;;;;;14.50;12.80;;;;;;;2.37;98.15;95480.56;5041971;28;20293;-61
2022/12/09 00:08:43;;;;;;;15.80;12.93;;;;;;;2.36;100.00;95476.28;5047938;28;20200;-61
2022/12/09 00:11:09;;;;;;;14.83;12.30;;;;;;;2.42;98.71;95481.00;5049143;28;20225;-61
2022/12/09 00:13:38;;;;;;;17.80;13.10;;;;;;;2.50;97.24;95489.06;5047702;28;20209;-60
2022/12/09 00:16:08;;;;;;;15.57;12.27;;;;;;;2.38;99.91;95484.78;5047058;28;20205;-59
2022/12/09 00:18:35;;;;;;;15.03;12.83;;;;;;;2.34;100.00;95488.59;5047010;28;20195;-59
2022/12/09 00:21:11;;;;;;;16.17;12.80;;;;;;;2.41;98.74;95484.53;5046380;28;20214;-59
2022/12/09 00:23:38;;;;;;;15.67;12.37;;;;;;;2.35;98.30;95485.03;5044820;28;20215;-60
2022/12/09 00:26:04;;;;;;;18.40;13.13;;;;;;;2.28;99.91;95489.09;5046364;28;20204;-60
2022/12/09 00:28:30;;;;;;;15.40;13.40;;;;;;;2.19;100.00;95485.44;5045937;28;20228;-60
2022/12/09 00:31:03;;;;;;;16.43;13.60;;;;;;;2.19;100.00;95489.81;5046255;28;20203;-60
2022/12/09 00:33:31;;;;;;;15.67;13.53;;;;;;;2.16;100.00;95482.25;5045768;28;20646;-60
2022/12/09 00:36:04;;;;;;;19.17;13.37;;;;;;;2.19;100.00;95468.97;5046762;28;20218;-59
2022/12/09 00:38:31;;;;;;;16.93;13.90;;;;;;;2.12;100.00;95473.00;5046182;28;20277;-60
2022/12/09 00:40:58;;;;;;;18.37;13.83;;;;;;;2.08;100.00;95469.81;5045425;28;20221;-59
2022/12/09 00:43:24;;;;;;;20.30;14.47;;;;;;;2.07;100.00;95462.94;5045756;28;20235;-61
2022/12/09 00:45:51;;;;;;;15.60;13.43;;;;;;;2.04;100.00;95465.78;5045584;28;20200;-62
2022/12/09 00:48:19;;;;;;;18.93;14.07;;;;;;;2.10;100.00;95474.88;5048009;28;20206;-60
2022/12/09 00:50:46;;;;;;;18.93;14.40;;;;;;;2.08;100.00;95474.19;5047088;28;20709;-59
2022/12/09 00:53:13;;;;;;;19.10;14.63;;;;;;;1.95;100.00;95477.75;5049962;28;20211;-60
2022/12/09 00:55:39;;;;;;;18.83;14.40;;;;;;;1.87;100.00;95468.88;5052162;28;20199;-60
2022/12/09 00:58:06;;;;;;;19.93;15.30;;;;;;;1.81;100.00;95457.13;5053000;28;20208;-60
2022/12/09 01:00:32;;;;;;;20.07;14.17;;;;;;;1.80;100.00;95452.06;5051263;28;20234;-60
2022/12/09 01:03:01;;;;;;;19.00;15.30;;;;;;;1.81;100.00;95453.69;5057168;28;20222;-61
2022/12/09 01:05:32;;;;;;;19.40;15.30;;;;;;;1.71;100.00;95453.59;5064627;28;20268;-61
2022/12/09 01:07:59;;;;;;;18.70;14.00;;;;;;;1.71;100.00;95439.72;5060602;28;20199;-61
2022/12/09 01:10:26;;;;;;;18.47;14.87;;;;;;;1.71;100.00;95437.94;5058381;28;20210;-63
2022/12/09 01:12:52;;;;;;;20.47;15.70;;;;;;;1.69;100.00;95426.00;5055269;28;20188;-64
2022/12/09 01:15:19;;;;;;;18.63;15.57;;;;;;;1.75;100.00;95421.13;5051814;28;20639;-62
2022/12/09 01:17:45;;;;;;;19.67;15.77;;;;;;;1.75;100.00;95434.16;5047218;28;20210;-64
2022/12/09 01:20:12;;;;;;;17.80;14.80;;;;;;;1.72;100.00;95423.97;5044582;28;20225;-61
2022/12/09 01:22:40;;;;;;;20.83;15.43;;;;;;;1.71;100.00;95435.34;5046582;28;20265;-62
2022/12/09 01:25:07;;;;;;;17.17;14.50;;;;;;;1.67;100.00;95426.09;5044035;28;20202;-61
2022/12/09 01:27:33;;;;;;;21.63;16.43;;;;;;;1.66;100.00;95424.47;5045611;28;20192;-62
2022/12/09 01:30:00;;;;;;;18.90;15.43;;;;;;;1.68;100.00;95425.16;5045750;28;20202;-63
2022/12/09 01:32:27;;;;;;;22.37;16.10;;;;;;;1.76;100.00;95425.41;5046858;28;20206;-62
2022/12/09 01:34:54;;;;;;;18.47;15.23;;;;;;;1.82;100.00;95409.28;5043697;28;21340;-63
2022/12/09 01:37:20;;;;;;;21.03;15.43;;;;;;;1.82;100.00;95416.25;5044092;28;20218;-62
2022/12/09 01:39:48;;;;;;;24.27;16.90;;;;;;;1.80;100.00;95418.19;5042990;28;20619;-62
2022/12/09 01:42:19;;;;;;;18.87;15.30;;;;;;;1.82;100.00;95418.88;5043707;28;20211;-61
2022/12/09 01:45:18;;;;;;;19.03;15.57;;;;;;;1.85;100.00;95413.41;5043189;28;20238;-61
2022/12/09 01:47:45;;;;;;;21.60;15.67;;;;;;;1.92;100.00;95419.81;5043288;28;20210;-61
2022/12/09 01:50:11;;;;;;;18.47;15.83;;;;;;;1.81;100.00;95406.78;5043406;28;20195;-62
2022/12/09 01:52:38;;;;;;;18.97;15.03;;;;;;;1.76;100.00;95406.34;5043252;28;20207;-62
2022/12/09 01:55:07;;;;;;;18.47;15.43;;;;;;;1.84;100.00;95404.75;5042414;28;20533;-61
2022/12/09 01:57:33;;;;;;;17.53;14.87;;;;;;;1.80;100.00;95397.31;5042991;28;20541;-63
2022/12/09 02:00:00;;;;;;;18.70;15.10;;;;;;;1.73;100.00;95402.19;5042758;28;20222;-60
2022/12/09 02:02:27;;;;;;;20.67;15.87;;;;;;;1.72;100.00;95405.75;5042503;28;20206;-61
2022/12/09 02:04:56;;;;;;;19.67;16.47;;;;;;;1.69;100.00;95397.34;5042807;28;20231;-62
2022/12/09 02:07:22;;;;;;;18.43;14.83;;;;;;;1.69;100.00;95390.34;5042901;28;20210;-62
2022/12/09 02:09:51;;;;;;;19.03;14.87;;;;;;;1.70;100.00;95394.59;5043036;28;20219;-62
2022/12/09 02:12:25;;;;;;;17.27;13.93;;;;;;;1.61;100.00;95378.84;5042960;28;20497;-62
2022/12/09 02:14:58;;;;;;;21.43;15.90;;;;;;;1.60;100.00;95375.41;5043366;28;20198;-61
2022/12/09 02:17:29;;;;;;;18.60;14.77;;;;;;;1.59;100.00;95371.19;5042791;28;20289;-61
2022/12/09 02:20:01;;;;;;;18.87;15.17;;;;;;;1.65;100.00;95375.91;5043195;28;20191;-62
2022/12/09 02:22:32;;;;;;;17.13;14.20;;;;;;;1.68;100.00;95364.41;5043235;28;20294;-61
2022/12/09 02:25:06;;;;;;;19.40;15.63;;;;;;;1.70;100.00;95360.72;5041364;28;20301;-62
2022/12/09 02:27:37;;;;;;;20.27;15.63;;;;;;;1.62;100.00;95360.50;5042256;28;20217;-62
2022/12/09 02:30:08;;;;;;;22.00;16.07;;;;;;;1.51;100.00;95352.72;5042096;28;20526;-62
2022/12/09 02:32:58;;;;;;;20.10;16.67;;;;;;;1.55;100.00;95354.13;5043479;28;20203;-62
2022/12/09 02:35:31;;;;;;;22.00;16.07;;;;;;;1.58;100.00;95347.84;5041986;28;20646;-62
2022/12/09 02:38:01;;;;;;;21.20;16.20;;;;;;;1.58;100.00;95343.47;5041802;28;20671;-63
2022/12/09 02:40:31;;;;;;;20.73;16.23;;;;;;;1.56;100.00;95345.34;5042193;28;20222;-62
2022/12/09 02:42:58;;;;;;;21.73;17.10;;;;;;;1.60;100.00;95341.56;5041986;28;20635;-62
2022/12/09 02:45:26;;;;;;;19.80;15.70;;;;;;;1.56;100.00;95332.31;5042452;28;20222;-62
2022/12/09 02:47:54;;;;;;;19.57;15.53;;;;;;;1.66;100.00;95327.22;5042001;28;20213;-62
2022/12/09 02:50:22;;;;;;;21.10;16.47;;;;;;;1.61;100.00;95326.75;5041932;28;20206;-63
2022/12/09 02:52:51;;;;;;;20.53;15.77;;;;;;;1.65;100.00;95329.00;5041109;28;20677;-63
2022/12/09 02:55:19;;;;;;;20.20;15.87;;;;;;;1.66;100.00;95324.63;5042035;28;20203;-63
2022/12/09 02:57:47;;;;;;;20.77;16.13;;;;;;;1.60;100.00;95325.09;5042829;28;20214;-62
2022/12/09 03:00:16;;;;;;;21.20;16.17;;;;;;;1.63;100.00;95315.25;5042384;28;20241;-63
2022/12/09 03:02:44;;;;;;;20.97;16.17;;;;;;;1.64;100.00;95310.88;5042472;28;20206;-62
2022/12/09 03:05:17;;;;;;;19.47;16.07;;;;;;;1.69;100.00;95309.56;5041984;28;20222;-63
2022/12/09 03:07:52;;;;;;;19.13;15.73;;;;;;;1.69;100.00;95317.41;5041225;28;20234;-62
2022/12/09 03:10:25;;;;;;;20.63;14.97;;;;;;;1.63;100.00;95310.03;5041785;28;20297;-62
2022/12/09 03:12:56;;;;;;;19.93;15.50;;;;;;;1.65;100.00;95305.56;5041532;28;20525;-62
2022/12/09 03:15:25;;;;;;;18.83;15.13;;;;;;;1.57;100.00;95302.72;5042014;28;20199;-63
2022/12/09 03:17:52;;;;;;;18.87;15.70;;;;;;;1.57;100.00;95294.91;5042105;28;20219;-62
2022/12/09 03:20:23;;;;;;;20.77;16.07;;;;;;;1.55;100.00;95282.97;5042012;28;20217;-63
2022/12/09 03:22:52;;;;;;;20.83;16.07;;;;;;;1.53;100.00;95280.47;5041813;28;20202;-62
2022/12/09 03:25:22;;;;;;;18.67;14.60;;;;;;;1.60;100.00;95275.59;5041518;28;20240;-63
2022/12/09 03:27:52;;;;;;;17.77;15.17;;;;;;;1.68;100.00;95271.44;5050153;28;20209;-62
2022/12/09 03:30:19;;;;;;;20.40;15.83;;;;;;;1.66;100.00;95257.72;5054589;28;20209;-63
2022/12/09 03:32:46;;;;;;;21.77;15.93;;;;;;;1.66;100.00;95267.31;5055627;28;20293;-62
2022/12/09 03:35:15;;;;;;;18.10;14.73;;;;;;;1.69;100.00;95267.88;5043516;28;20210;-62
2022/12/09 03:37:43;;;;;;;18.30;13.97;;;;;;;1.60;100.00;95263.41;5042077;28;20223;-63
2022/12/09 03:40:14;;;;;;;21.20;15.47;;;;;;;1.70;100.00;95266.91;5042796;28;20297;-62
2022/12/09 03:42:46;;;;;;;19.33;14.77;;;;;;;1.55;100.00;95255.13;5046942;28;20210;-61
2022/12/09 03:45:15;;;;;;;18.37;14.50;;;;;;;1.69;100.00;95244.44;5045699;28;20222;-62
2022/12/09 03:47:42;;;;;;;19.50;15.33;;;;;;;1.59;100.00;95246.13;5046316;28;20588;-62
2022/12/09 03:50:10;;;;;;;17.83;14.73;;;;;;;1.64;100.00;95243.13;5045192;28;20209;-62
2022/12/09 03:52:40;;;;;;;20.77;15.60;;;;;;;1.57;100.00;95242.81;5048454;28;20208;-62
2022/12/09 03:55:11;;;;;;;17.47;15.07;;;;;;;1.58;100.00;95244.47;5047209;28;20195;-62
2022/12/09 03:57:41;;;;;;;21.53;14.97;;;;;;;1.62;100.00;95248.50;5045541;28;20199;-63
2022/12/09 04:00:08;;;;;;;18.70;15.00;;;;;;;1.68;100.00;95240.16;5045082;28;20229;-63
2022/12/09 04:02:36;;;;;;;16.63;14.13;;;;;;;1.65;100.00;95235.22;5046421;28;20206;-62
2022/12/09 04:05:03;;;;;;;17.73;14.07;;;;;;;1.67;100.00;95227.25;5048660;28;20241;-62
2022/12/09 04:07:30;;;;;;;17.40;14.10;;;;;;;1.62;100.00;95225.03;5048752;28;20542;-63
2022/12/09 04:09:56;;;;;;;17.63;14.33;;;;;;;1.56;100.00;95225.50;5046342;28;20215;-63
2022/12/09 04:12:23;;;;;;;17.97;14.47;;;;;;;1.62;100.00;95224.22;5044889;28;20222;-62
2022/12/09 04:14:51;;;;;;;17.83;14.67;;;;;;;1.59;100.00;95229.66;5045521;28;20203;-63
2022/12/09 04:17:17;;;;;;;19.53;15.10;;;;;;;1.64;100.00;95225.72;5044697;28;20218;-63
2022/12/09 04:19:44;;;;;;;17.77;14.90;;;;;;;1.59;100.00;95221.84;5044938;28;20847;-61
2022/12/09 04:22:10;;;;;;;18.10;14.80;;;;;;;1.58;100.00;95223.63;5045454;28;20201;-62
2022/12/09 04:24:37;;;;;;;17.53;15.13;;;;;;;1.63;100.00;95225.88;5043369;28;20229;-62
2022/12/09 04:27:04;;;;;;;18.83;15.40;;;;;;;1.63;100.00;95226.66;5045102;28;20214;-63
2022/12/09 04:29:31;;;;;;;19.80;15.97;;;;;;;1.65;100.00;95224.78;5044350;28;20217;-62
2022/12/09 04:31:58;;;;;;;20.93;15.83;;;;;;;1.64;100.00;95217.91;5044649;28;20211;-62
2022/12/09 04:34:25;;;;;;;19.60;16.00;;;;;;;1.67;100.00;95222.88;5045330;28;21397;-62
2022/12/09 04:36:51;;;;;;;19.40;15.50;;;;;;;1.68;100.00;95214.13;5044975;28;20202;-62
2022/12/09 04:39:18;;;;;;;20.17;15.43;;;;;;;1.66;100.00;95210.81;5044023;28;20217;-62
2022/12/09 04:41:44;;;;;;;18.60;15.23;;;;;;;1.62;100.00;95206.81;5044118;28;20631;-62
2022/12/09 04:44:11;;;;;;;18.67;15.30;;;;;;;1.67;100.00;95196.81;5045430;28;20236;-62
2022/12/09 04:46:38;;;;;;;18.97;15.47;;;;;;;1.64;100.00;95191.03;5044906;28;20213;-62
2022/12/09 04:49:06;;;;;;;18.30;15.03;;;;;;;1.61;100.00;95186.91;5048670;28;20208;-62
2022/12/09 04:51:33;;;;;;;18.40;15.57;;;;;;;1.61;100.00;95186.91;5063801;28;20207;-63
2022/12/09 04:53:59;;;;;;;20.23;16.30;;;;;;;1.59;100.00;95188.00;5057055;28;20205;-63
2022/12/09 04:56:25;;;;;;;18.90;15.67;;;;;;;1.69;100.00;95179.31;5049037;28;20875;-63
2022/12/09 04:58:52;;;;;;;19.47;15.40;;;;;;;1.64;100.00;95178.00;5063335;28;20600;-63
2022/12/09 05:01:21;;;;;;;20.00;16.07;;;;;;;1.65;100.00;95177.88;5054347;28;20199;-62
2022/12/09 05:03:49;;;;;;;19.93;16.17;;;;;;;1.67;100.00;95181.19;5048262;28;20215;-62
2022/12/09 05:06:18;;;;;;;20.50;16.03;;;;;;;1.64;100.00;95176.22;5044265;28;20207;-62
2022/12/09 05:08:45;;;;;;;17.93;15.63;;;;;;;1.70;100.00;95185.34;5044544;28;20203;-61
2022/12/09 05:11:13;;;;;;;16.77;14.57;;;;;;;1.77;100.00;95187.28;5044057;28;21022;-62
2022/12/09 05:13:40;;;;;;;20.57;16.37;;;;;;;1.67;100.00;95190.78;5044106;28;20211;-62
2022/12/09 05:16:08;;;;;;;18.47;14.83;;;;;;;1.65;100.00;95182.28;5044181;28;20213;-63
2022/12/09 05:18:35;;;;;;;20.17;15.77;;;;;;;1.63;100.00;95179.78;5044482;28;20256;-62
2022/12/09 05:21:05;;;;;;;17.87;15.40;;;;;;;1.64;100.00;95184.03;5043485;28;20635;-63
2022/12/09 05:23:33;;;;;;;20.90;16.17;;;;;;;1.65;100.00;95188.31;5043604;28;20653;-62
2022/12/09 05:26:02;;;;;;;19.07;15.27;;;;;;;1.60;100.00;95180.03;5045614;28;20230;-62
2022/12/09 05:28:29;;;;;;;18.27;14.60;;;;;;;1.65;100.00;95184.88;5045345;28;20292;-62
2022/12/09 05:30:59;;;;;;;19.47;15.70;;;;;;;1.73;100.00;95188.53;5044844;28;20217;-63
2022/12/09 05:33:27;;;;;;;19.27;14.80;;;;;;;1.74;100.00;95184.94;5046289;28;20202;-62
2022/12/09 05:35:54;;;;;;;19.10;14.90;;;;;;;1.71;100.00;95189.56;5045676;28;20237;-62
2022/12/09 05:38:20;;;;;;;17.30;15.03;;;;;;;1.71;100.00;95190.41;5044300;28;20272;-62
2022/12/09 05:40:48;;;;;;;19.80;15.73;;;;;;;1.71;100.00;95186.97;5043901;28;20650;-62
2022/12/09 05:43:15;;;;;;;19.63;15.13;;;;;;;1.67;100.00;95191.59;5043062;28;20206;-61
2022/12/09 05:45:41;;;;;;;17.47;14.60;;;;;;;1.57;100.00;95189.88;5043231;28;20218;-62
2022/12/09 05:48:08;;;;;;;18.63;15.77;;;;;;;1.58;100.00;95192.38;5043407;28;20210;-62
2022/12/09 05:50:34;;;;;;;19.43;15.23;;;;;;;1.58;100.00;95187.16;5043223;28;20220;-62
2022/12/09 05:53:01;;;;;;;18.60;14.77;;;;;;;1.64;100.00;95181.44;5042127;28;20202;-62
2022/12/09 05:55:27;;;;;;;17.73;15.33;;;;;;;1.69;100.00;95175.88;5047193;28;20217;-62
2022/12/09 05:57:55;;;;;;;19.97;15.83;;;;;;;1.76;100.00;95175.25;5055724;28;20213;-62
2022/12/09 06:00:22;;;;;;;18.53;15.93;;;;;;;1.73;100.00;95179.88;5059579;28;20234;-63
2022/12/09 06:02:49;;;;;;;17.47;14.97;;;;;;;1.70;100.00;95175.72;5050864;28;20213;-61
2022/12/09 06:05:15;;;;;;;19.60;15.37;;;;;;;1.68;100.00;95175.03;5044159;28;20234;-63
2022/12/09 06:07:42;;;;;;;18.80;14.83;;;;;;;1.66;100.00;95176.94;5042905;28;20211;-59
2022/12/09 06:10:08;;;;;;;19.20;15.77;;;;;;;1.69;100.00;95174.09;5044178;28;20206;-61
2022/12/09 06:12:35;;;;;;;18.20;14.97;;;;;;;1.79;100.00;95169.78;5047229;28;20211;-59
2022/12/09 06:15:03;;;;;;;22.07;16.30;;;;;;;1.71;100.00;95171.34;5043015;28;20203;-60
2022/12/09 06:17:30;;;;;;;19.87;15.27;;;;;;;1.69;100.00;95171.47;5042723;28;20224;-60
2022/12/09 06:19:56;;;;;;;21.03;15.50;;;;;;;1.67;100.00;95168.16;5043162;28;20198;-60
2022/12/09 06:22:23;;;;;;;19.77;16.13;;;;;;;1.69;100.00;95168.88;5044738;28;20218;-60
2022/12/09 06:24:49;;;;;;;17.90;15.17;;;;;;;1.65;100.00;95157.06;5044175;28;20229;-60
2022/12/09 06:27:17;;;;;;;20.63;16.47;;;;;;;1.65;100.00;95161.44;5042202;28;20210;-60
2022/12/09 06:29:44;;;;;;;19.17;15.47;;;;;;;1.73;100.00;95148.59;5042462;28;20210;-59
2022/12/09 06:32:12;;;;;;;23.27;14.87;;;;;;;1.69;100.00;95155.84;5043400;28;20227;-60
2022/12/09 06:34:38;;;;;;;19.83;16.40;;;;;;;1.64;100.00;95154.56;5042803;28;20634;-60
2022/12/09 06:37:05;;;;;;;20.23;16.57;;;;;;;1.69;100.00;95142.81;5042503;28;20200;-60
2022/12/09 06:39:32;;;;;;;20.00;15.90;;;;;;;1.63;100.00;95138.09;5042295;28;20214;-59
2022/12/09 06:41:58;;;;;;;19.23;15.93;;;;;;;1.65;100.00;95146.63;5042512;28;20215;-60
2022/12/09 06:44:24;;;;;;;22.53;17.00;;;;;;;1.61;100.00;95147.81;5042533;28;20217;-59
2022/12/09 06:46:52;;;;;;;21.07;16.80;;;;;;;1.59;100.00;95152.34;5042377;28;20203;-59
2022/12/09 06:49:20;;;;;;;21.17;16.23;;;;;;;1.58;100.00;95150.69;5042835;28;20228;-60
2022/12/09 06:51:46;;;;;;;21.40;16.30;;;;;;;1.59;100.00;95149.75;5043890;28;20211;-60
2022/12/09 06:54:13;;;;;;;20.57;16.60;;;;;;;1.62;100.00;95146.88;5042083;28;20214;-60
2022/12/09 06:56:39;;;;;;;22.90;17.00;;;;;;;1.58;100.00;95142.88;5042462;28;21418;-61
2022/12/09 06:59:07;;;;;;;22.63;17.53;;;;;;;1.64;100.00;95144.13;5042302;28;20288;-60
2022/12/09 07:01:34;;;;;;;22.90;17.30;;;;;;;1.60;100.00;95147.94;5043498;28;20216;-60
2022/12/09 07:04:00;;;;;;;21.03;17.20;;;;;;;1.58;100.00;95140.25;5044161;28;20226;-59
2022/12/09 07:06:30;;;;;;;23.40;17.13;;;;;;;1.54;100.00;95138.84;5044273;28;20242;-60
2022/12/09 07:08:58;;;;;;;23.03;18.20;;;;;;;1.57;100.00;95145.59;5044817;28;20229;-60
2022/12/09 07:11:27;;;;;;;20.93;16.80;;;;;;;1.59;100.00;95147.13;5043525;28;20206;-59
2022/12/09 07:13:54;;;;;;;21.60;16.83;;;;;;;1.55;100.00;95135.31;5044334;28;20238;-59
2022/12/09 07:16:20;;;;;;;20.43;16.93;;;;;;;1.63;100.00;95143.31;5046281;28;20207;-58
2022/12/09 07:18:47;;;;;;;21.07;17.87;;;;;;;1.65;100.00;95136.22;5048494;28;20214;-59
2022/12/09 07:21:15;;;;;;;22.83;16.90;;;;;;;1.58;100.00;95140.25;5049649;28;20206;-60
2022/12/09 07:23:43;;;;;;;22.00;17.40;;;;;;;1.52;100.00;95140.78;5047514;28;20258;-56
2022/12/09 07:26:10;;;;;;;21.77;17.67;;;;;;;1.54;100.00;95138.84;5047571;28;20233;-59
2022/12/09 07:28:38;;;;;;;23.20;17.57;;;;;;;1.60;100.00;95142.72;5047154;28;20573;-58
2022/12/09 07:31:06;;;;;;;22.13;18.33;;;;;;;1.57;100.00;95136.00;5047227;28;20203;-58
2022/12/09 07:33:32;;;;;;;22.33;18.67;;;;;;;1.63;100.00;95135.50;5047308;28;20214;-58
2022/12/09 07:35:59;;;;;;;21.47;17.83;;;;;;;1.76;100.00;95137.94;5045921;28;20200;-58
2022/12/09 07:38:26;;;;;;;21.87;17.53;;;;;;;1.78;100.00;95139.44;5046382;28;20278;-57
2022/12/09 07:40:54;;;;;;;20.73;17.30;;;;;;;1.80;100.00;95132.34;5046897;28;20218;-58
2022/12/09 07:43:20;;;;;;;23.30;18.00;;;;;;;1.70;100.00;95134.03;5047262;28;20595;-59
2022/12/09 07:45:48;;;;;;;22.17;17.67;;;;;;;1.68;100.00;95135.13;5046311;28;20238;-59
2022/12/09 07:48:14;;;;;;;22.93;17.77;;;;;;;1.71;100.00;95138.31;5047261;28;20229;-59
2022/12/09 07:50:41;;;;;;;21.73;17.93;;;;;;;1.68;100.00;95137.72;5046787;28;20322;-60
2022/12/09 07:53:07;;;;;;;20.90;17.67;;;;;;;1.69;100.00;95137.63;5047498;28;20208;-59
2022/12/09 07:55:34;;;;;;;22.53;18.20;;;;;;;1.66;100.00;95131.81;5047035;28;20199;-59
2022/12/09 07:58:01;;;;;;;21.83;19.13;;;;;;;1.68;100.00;95135.94;5046979;28;20202;-59
2022/12/09 08:00:28;;;;;;;24.80;18.80;;;;;;;1.68;100.00;95130.75;5046807;28;20231;-59
2022/12/09 08:02:54;;;;;;;25.37;19.40;;;;;;;1.68;100.00;95125.53;5047058;28;20225;-59
2022/12/09 08:05:21;;;;;;;23.87;18.53;;;;;;;1.67;100.00;95126.47;5047087;28;20662;-59
2022/12/09 08:07:47;;;;;;;23.80;19.10;;;;;;;1.73;100.00;95123.38;5046226;28;20207;-58
2022/12/09 08:10:14;;;;;;;24.67;18.53;;;;;;;1.70;100.00;95122.81;5045806;28;20222;-59
2022/12/09 08:12:41;;;;;;;21.83;17.73;;;;;;;1.67;100.00;95129.06;5045159;28;20210;-60
2022/12/09 08:15:09;;;;;;;23.53;18.17;;;;;;;1.69;100.00;95127.19;5046951;28;20202;-58
2022/12/09 08:17:36;;;;;;;24.23;19.50;;;;;;;1.65;100.00;95123.19;5047484;28;20204;-59
2022/12/09 08:20:03;;;;;;;23.20;18.67;;;;;;;1.62;100.00;95128.66;5047912;28;20718;-59
2022/12/09 08:22:29;;;;;;;25.50;19.73;;;;;;;1.65;100.00;95128.38;5049647;28;20194;-60
2022/12/09 08:24:56;;;;;;;23.47;19.13;;;;;;;1.70;100.00;95128.81;5047877;28;20231;-60
2022/12/09 08:27:22;;;;;;;23.23;19.17;;;;;;;1.63;100.00;95126.88;5050357;28;20586;-59
2022/12/09 08:29:49;;;;;;;24.17;19.47;;;;;;;1.67;100.00;95123.88;5053577;28;20214;-59
2022/12/09 08:32:17;;;;;;;24.90;20.10;;;;;;;1.78;100.00;95128.19;5068539;28;20187;-60
2022/12/09 08:34:44;;;;;;;25.03;19.70;;;;;;;1.81;100.00;95131.38;5057051;28;20232;-60
2022/12/09 08:37:10;;;;;;;25.23;19.67;;;;;;;1.73;100.00;95123.38;5054627;28;20199;-59
2022/12/09 08:39:37;;;;;;;23.53;19.10;;;;;;;1.75;100.00;95125.84;5052338;28;20205;-59
2022/12/09 08:42:04;;;;;;;26.37;20.13;;;;;;;1.78;100.00;95116.00;5060837;28;20301;-59
2022/12/09 08:44:30;;;;;;;24.27;18.53;;;;;;;1.66;100.00;95122.25;5056056;28;20307;-58
2022/12/09 08:46:57;;;;;;;23.90;19.70;;;;;;;1.70;100.00;95121.00;5051292;28;20230;-62
2022/12/09 08:49:26;;;;;;;22.77;19.23;;;;;;;1.74;100.00;95118.97;5050206;28;20213;-60
2022/12/09 08:51:53;;;;;;;23.10;19.27;;;;;;;1.68;100.00;95109.91;5048723;28;20278;-60
2022/12/09 08:54:20;;;;;;;23.77;19.67;;;;;;;1.71;100.00;95109.63;5046182;28;20214;-60
2022/12/09 08:56:47;;;;;;;26.30;20.57;;;;;;;1.67;100.00;95113.44;5046228;28;20202;-60
2022/12/09 08:59:14;;;;;;;26.63;20.33;;;;;;;1.67;100.00;95105.63;5044355;28;20243;-60
2022/12/09 09:01:40;;;;;;;23.57;19.90;;;;;;;1.73;100.00;95112.13;5044629;28;20214;-60
2022/12/09 09:04:09;;;;;;;25.33;20.30;;;;;;;1.84;100.00;95120.69;5044321;28;20218;-59
2022/12/09 09:06:38;;;;;;;23.07;19.60;;;;;;;1.85;100.00;95118.91;5044635;28;20241;-60
2022/12/09 09:09:05;;;;;;;24.70;20.67;;;;;;;1.79;100.00;95120.25;5044244;28;20204;-59
2022/12/09 09:11:32;;;;;;;28.83;20.07;;;;;;;1.85;100.00;95124.97;5044820;28;20223;-60
2022/12/09 09:13:59;;;;;;;24.00;19.00;;;;;;;1.78;100.00;95129.03;5044475;28;20262;-59
2022/12/09 09:16:27;;;;;;;23.53;19.37;;;;;;;1.76;100.00;95136.16;5044800;28;20213;-59
2022/12/09 09:18:53;;;;;;;21.73;19.10;;;;;;;1.79;100.00;95130.69;5044153;28;20202;-59
2022/12/09 09:21:22;;;;;;;24.33;18.67;;;;;;;1.79;100.00;95130.69;5044836;28;20211;-60
2022/12/09 09:23:50;;;;;;;22.70;19.23;;;;;;;1.76;100.00;95124.91;5043038;28;20914;-58
2022/12/09 09:26:18;;;;;;;23.50;19.47;;;;;;;1.74;100.00;95125.00;5044606;28;20245;-59
2022/12/09 09:28:45;;;;;;;23.07;18.87;;;;;;;1.78;100.00;95134.22;5043227;28;20644;-58
2022/12/09 09:31:14;;;;;;;22.97;19.07;;;;;;;1.76;100.00;95123.13;5044265;28;20298;-59
2022/12/09 09:33:44;;;;;;;23.43;18.70;;;;;;;1.74;100.00;95125.00;5044579;28;20288;-59
2022/12/09 09:36:13;;;;;;;22.43;18.87;;;;;;;1.77;100.00;95123.97;5044209;28;20293;-59
2022/12/09 09:38:40;;;;;;;23.30;19.10;;;;;;;1.79;100.00;95120.25;5043826;28;20539;-59
2022/12/09 09:41:21;;;;;;;21.57;18.40;;;;;;;1.80;100.00;95119.31;5043514;28;20580;-59
2022/12/09 09:43:48;;;;;;;21.77;18.40;;;;;;;1.87;100.00;95117.84;5044727;28;20195;-59
2022/12/09 09:46:20;;;;;;;22.90;18.10;;;;;;;1.88;100.00;95121.25;5044108;28;20222;-58
2022/12/09 09:48:47;;;;;;;23.13;19.67;;;;;;;1.96;100.00;95111.03;5043901;28;20230;-59
2022/12/09 09:51:16;;;;;;;25.17;19.57;;;;;;;1.91;100.00;95116.63;5044371;28;20215;-59
2022/12/09 09:53:43;;;;;;;22.20;18.60;;;;;;;1.96;100.00;95104.03;5043867;28;20241;-59
2022/12/09 09:56:21;;;;;;;24.90;20.40;;;;;;;2.04;100.00;95107.78;5043258;28;20635;-58
2022/12/09 09:58:53;;;;;;;27.20;20.83;;;;;;;1.99;100.00;95106.38;5043864;28;20298;-58
2022/12/09 10:01:19;;;;;;;28.30;22.33;;;;;;;2.01;100.00;95106.28;5043389;28;20675;-59
2022/12/09 10:03:52;;;;;;;23.20;18.87;;;;;;;2.12;100.00;95092.34;5043430;28;20290;-60
2022/12/09 10:06:28;;;;;;;22.87;18.60;;;;;;;2.15;100.00;95097.28;5042838;28;20557;-60
2022/12/09 10:08:57;;;;;;;24.63;19.43;;;;;;;2.08;100.00;95096.16;5043031;28;20560;-60
2022/12/09 10:11:31;;;;;;;22.73;18.50;;;;;;;2.12;100.00;95092.34;5043904;28;20302;-60
2022/12/09 10:14:04;;;;;;;25.93;19.77;;;;;;;2.12;100.00;95089.72;5043428;28;20306;-60
2022/12/09 10:16:35;;;;;;;24.87;19.37;;;;;;;2.14;100.00;95085.19;5044669;28;20294;-60
2022/12/09 10:19:06;;;;;;;23.60;19.80;;;;;;;2.09;100.00;95092.59;5042943;28;20313;-59
2022/12/09 10:21:34;;;;;;;24.40;19.50;;;;;;;2.21;100.00;95081.94;5044235;28;20303;-60
2022/12/09 10:24:15;;;;;;;23.73;19.40;;;;;;;2.23;100.00;95079.22;5041719;28;20199;-60
2022/12/09 10:26:43;;;;;;;23.70;19.50;;;;;;;2.20;100.00;95077.66;5043021;28;20588;-60
2022/12/09 10:29:15;;;;;;;23.60;18.80;;;;;;;2.20;100.00;95074.22;5043005;28;20303;-62
2022/12/09 10:31:42;;;;;;;23.40;19.57;;;;;;;2.21;100.00;95060.25;5042682;28;20674;-61
2022/12/09 10:34:08;;;;;;;23.63;19.30;;;;;;;2.24;100.00;95073.00;5043040;28;20200;-61
2022/12/09 10:36:37;;;;;;;24.37;19.50;;;;;;;2.23;100.00;95069.59;5043237;28;20200;-62
2022/12/09 10:39:04;;;;;;;22.57;18.73;;;;;;;2.28;100.00;95071.81;5042246;28;20661;-61
2022/12/09 10:44:37;;;;;;;22.43;18.90;;;;;;;2.26;100.00;95065.91;5010000;28;20207;-61
2022/12/09 10:47:06;;;;;;;24.70;19.57;;;;;;;2.15;100.00;95063.38;5034388;28;20227;-62
2022/12/09 10:49:34;;;;;;;25.00;20.13;;;;;;;2.13;100.00;95062.66;5042640;28;20207;-61
2022/12/09 10:52:03;;;;;;;23.17;19.50;;;;;;;2.20;100.00;95059.41;5041941;28;20213;-60
2022/12/09 10:54:33;;;;;;;22.83;19.50;;;;;;;2.21;100.00;95057.63;5042136;28;20202;-59
2022/12/09 10:57:03;;;;;;;22.30;18.73;;;;;;;2.30;100.00;95043.81;5043486;28;20206;-60
2022/12/09 10:59:31;;;;;;;23.77;18.73;;;;;;;2.27;100.00;95044.91;5042411;28;20241;-59
2022/12/09 11:02:02;;;;;;;20.67;18.20;;;;;;;2.35;100.00;95045.06;5049139;28;20271;-60
2022/12/09 11:04:30;;;;;;;23.17;18.13;;;;;;;2.32;100.00;95041.91;5050803;28;20208;-60
2022/12/09 11:06:58;;;;;;;22.53;18.80;;;;;;;2.39;100.00;95048.25;5051586;28;20226;-60
2022/12/09 11:09:28;;;;;;;20.53;17.57;;;;;;;2.42;100.00;95047.97;5049199;28;20332;-60
2022/12/09 11:11:55;;;;;;;23.43;18.80;;;;;;;2.25;100.00;95040.78;5048360;28;20210;-60
2022/12/09 11:14:24;;;;;;;21.37;18.43;;;;;;;2.27;100.00;95044.06;5046374;28;20220;-60
2022/12/09 11:16:52;;;;;;;21.83;18.07;;;;;;;2.40;100.00;95042.06;5047316;28;20215;-59
2022/12/09 11:19:28;;;;;;;20.73;18.37;;;;;;;2.23;100.00;95042.72;5043291;28;20208;-59
2022/12/09 11:22:13;;;;;;;21.63;17.97;;;;;;;2.14;100.00;95039.09;5042339;28;20213;-60
2022/12/09 11:24:40;;;;;;;22.53;19.13;;;;;;;2.11;100.00;95030.69;5042940;28;20210;-60